createdAt,value
2023-03-18T00:02:15.831Z,5.14
2023-03-18T00:05:45.612Z,5.08
2023-03-18T00:09:27.652Z,5.09
2023-03-18T00:13:15.978Z,5.04
2023-03-18T00:16:49.942Z,4.99
2023-03-18T00:20:39.172Z,4.97
2023-03-18T00:24:28.429Z,4.86
2023-03-18T00:28:11.066Z,4.82
2023-03-18T00:32:09.461Z,4.77
2023-03-18T00:35:51.968Z,4.77
2023-03-18T00:39:42.373Z,4.75
2023-03-18T00:43:19.776Z,4.69
2023-03-18T00:46:52.244Z,4.69
2023-03-18T00:50:32.617Z,4.66
2023-03-18T00:54:25.061Z,4.59
2023-03-18T00:57:53.848Z,4.55
2023-03-18T01:01:33.194Z,4.51
2023-03-18T01:05:22.311Z,4.49
2023-03-18T01:09:11.639Z,4.52
2023-03-18T01:12:06.641Z,4.46
2023-03-18T01:14:39.596Z,4.49
2023-03-18T01:17:51.663Z,4.52
2023-03-18T01:21:41.217Z,4.52
2023-03-18T01:25:23.219Z,4.71
2023-03-18T01:29:12.654Z,4.52
2023-03-18T01:33:01.960Z,4.39
2023-03-18T01:36:33.024Z,4.29
2023-03-18T01:40:05.621Z,4.22
2023-03-18T01:43:51.185Z,4.47
2023-03-18T01:47:32.746Z,4.46
2023-03-18T01:51:21.917Z,4.44
2023-03-18T01:55:10.923Z,4.19
2023-03-18T01:58:51.559Z,4.29
2023-03-18T02:02:39.401Z,4.18
2023-03-18T02:06:28.772Z,4.12
2023-03-18T02:10:17.834Z,4.12
2023-03-18T02:13:57.730Z,4.03
2023-03-18T02:17:49.469Z,3.94
2023-03-18T02:21:36.813Z,3.94
2023-03-18T02:25:36.358Z,3.94
2023-03-18T02:28:59.098Z,3.91
2023-03-18T02:32:24.506Z,3.88
2023-03-18T02:36:13.465Z,3.88
2023-03-18T02:40:01.640Z,3.88
2023-03-18T02:43:59.416Z,3.84
2023-03-18T02:47:20.166Z,3.85
2023-03-18T02:50:31.456Z,3.84
2023-03-18T02:54:18.743Z,3.91
2023-03-18T02:58:01.220Z,3.86
2023-03-18T03:01:44.822Z,3.87
2023-03-18T03:05:23.734Z,3.91
2023-03-18T03:09:05.896Z,3.94
2023-03-18T03:12:44.881Z,3.89
2023-03-18T03:16:16.909Z,4.07
2023-03-18T03:19:56.007Z,4.28
2023-03-18T03:23:47.916Z,3.94
2023-03-18T03:27:36.877Z,3.87
2023-03-18T03:31:20.016Z,3.87
2023-03-18T03:34:56.173Z,3.87
2023-03-18T03:38:45.116Z,3.87
2023-03-18T03:42:12.685Z,3.85
2023-03-18T03:46:01.680Z,3.85
2023-03-18T03:49:49.452Z,3.81
2023-03-18T03:53:23.768Z,3.83
2023-03-18T03:57:05.181Z,4.10
2023-03-18T04:00:54.185Z,4.17
2023-03-18T04:04:43.158Z,4.17
2023-03-18T04:07:45.486Z,4.24
2023-03-18T04:10:59.396Z,4.24
2023-03-18T04:19:00.853Z,4.28
2023-03-18T04:23:28.376Z,4.13
2023-03-18T04:27:56.031Z,4.02
2023-03-18T04:32:23.614Z,4.00
2023-03-18T04:36:51.194Z,4.00
2023-03-18T04:41:19.099Z,4.26
2023-03-18T04:45:46.953Z,4.07
2023-03-18T04:50:14.384Z,3.99
2023-03-18T04:54:41.762Z,4.05
2023-03-18T04:59:09.328Z,4.02
2023-03-18T05:03:36.919Z,4.04
2023-03-18T05:08:04.284Z,4.10
2023-03-18T05:12:31.813Z,4.16
2023-03-18T05:16:59.287Z,4.24
2023-03-18T05:21:29.412Z,4.31
2023-03-18T05:26:00.969Z,4.40
2023-03-18T05:30:28.253Z,4.42
2023-03-18T05:39:17.607Z,4.49
2023-03-18T05:47:29.163Z,4.51
2023-03-18T05:51:54.818Z,4.47
2023-03-18T05:55:42.652Z,4.54
2023-03-18T05:59:30.781Z,4.59
2023-03-18T06:07:18.343Z,4.72
2023-03-18T06:10:46.234Z,4.82
2023-03-18T06:14:17.266Z,4.94
2023-03-18T06:17:44.285Z,4.99
2023-03-18T06:21:22.206Z,5.21
2023-03-18T06:24:51.478Z,5.29
2023-03-18T06:32:42.398Z,5.71
2023-03-18T06:36:30.158Z,5.84
2023-03-18T06:40:18.772Z,5.88
2023-03-18T06:44:06.695Z,6.01
2023-03-18T06:47:54.599Z,6.13
2023-03-18T06:51:33.966Z,6.28
2023-03-18T06:55:22.052Z,6.40
2023-03-18T06:59:09.682Z,6.60
2023-03-18T07:02:48.165Z,6.66
2023-03-18T07:06:15.102Z,6.81
2023-03-18T07:09:56.335Z,6.85
2023-03-18T07:13:38.533Z,7.03
2023-03-18T07:17:14.761Z,7.10
2023-03-18T07:21:42.988Z,7.26
2023-03-18T07:26:14.617Z,7.54
2023-03-18T07:30:42.964Z,8.17
2023-03-18T07:35:12.218Z,9.05
2023-03-18T07:39:39.839Z,10.06
2023-03-18T07:43:35.675Z,10.04
2023-03-18T07:47:27.951Z,10.46
2023-03-18T07:51:09.161Z,10.74
2023-03-18T07:59:13.750Z,10.48
2023-03-18T08:03:10.438Z,10.45
2023-03-18T08:06:40.858Z,10.72
2023-03-18T08:10:45.431Z,10.93
2023-03-18T08:14:33.182Z,10.75
2023-03-18T08:18:39.664Z,10.75
2023-03-18T08:23:09.125Z,10.91
2023-03-18T08:27:38.457Z,11.21
2023-03-18T08:32:11.679Z,11.61
2023-03-18T08:36:40.080Z,11.90
2023-03-18T08:41:04.556Z,12.19
2023-03-18T08:44:48.532Z,12.17
2023-03-18T08:48:32.647Z,12.64
2023-03-18T08:56:51.698Z,13.05
2023-03-18T09:04:20.809Z,13.02
2023-03-18T09:08:49.743Z,13.17
2023-03-18T09:12:54.106Z,13.09
2023-03-18T09:16:42.615Z,13.27
2023-03-18T09:20:32.656Z,13.23
2023-03-18T09:24:41.725Z,13.16
2023-03-18T09:28:30.064Z,13.13
2023-03-18T09:32:18.469Z,13.41
2023-03-18T09:36:06.835Z,13.49
2023-03-18T09:43:14.347Z,13.92
2023-03-18T09:47:37.456Z,14.01
2023-03-18T09:51:52.112Z,14.33
2023-03-18T09:55:49.660Z,14.37
2023-03-18T09:59:13.659Z,14.68
2023-03-18T10:03:00.536Z,14.94
2023-03-18T10:07:28.375Z,15.03
2023-03-18T10:11:59.655Z,15.23
2023-03-18T10:16:33.642Z,15.11
2023-03-18T10:21:00.615Z,15.39
2023-03-18T10:25:31.968Z,15.53
2023-03-18T10:30:25.685Z,15.68
2023-03-18T10:34:29.564Z,15.76
2023-03-18T10:38:23.181Z,15.79
2023-03-18T10:42:17.302Z,16.02
2023-03-18T10:46:23.545Z,15.71
2023-03-18T10:50:16.876Z,15.72
2023-03-18T10:54:26.517Z,15.95
2023-03-18T11:02:39.887Z,15.92
2023-03-18T11:06:28.518Z,16.39
2023-03-18T11:10:19.171Z,16.51
2023-03-18T11:13:49.739Z,16.51
2023-03-18T11:17:41.042Z,16.86
2023-03-18T11:21:37.946Z,16.86
2023-03-18T11:25:26.116Z,17.02
2023-03-18T11:29:20.209Z,17.15
2023-03-18T11:33:10.592Z,17.72
2023-03-18T11:36:53.272Z,18.06
2023-03-18T11:40:55.592Z,18.17
2023-03-18T11:45:07.065Z,18.24
2023-03-18T11:48:58.088Z,18.63
2023-03-18T11:53:06.861Z,18.83
2023-03-18T11:56:50.585Z,19.33
2023-03-18T12:00:41.913Z,19.32
2023-03-18T12:04:46.811Z,19.30
2023-03-18T12:09:18.244Z,18.86
2023-03-18T12:14:01.277Z,18.91
2023-03-18T12:18:30.588Z,18.98
2023-03-18T12:23:06.604Z,19.19
2023-03-18T12:27:45.185Z,19.32
2023-03-18T12:32:14.579Z,19.05
2023-03-18T12:36:54.626Z,19.06
2023-03-18T12:41:37.700Z,19.35
2023-03-18T12:46:14.796Z,19.23
2023-03-18T12:50:48.709Z,18.74
2023-03-18T12:55:17.223Z,18.96
2023-03-18T13:00:09.259Z,19.02
2023-03-18T13:04:40.012Z,18.98
2023-03-18T13:09:12.067Z,19.03
2023-03-18T13:13:39.965Z,19.03
2023-03-18T13:18:11.037Z,18.78
2023-03-18T13:22:41.952Z,18.81
2023-03-18T13:31:22.928Z,18.69
2023-03-18T13:35:49.488Z,18.69
2023-03-18T13:40:20.640Z,18.58
2023-03-18T13:44:51.648Z,18.90
2023-03-18T13:49:27.527Z,18.70
2023-03-18T13:54:02.289Z,18.62
2023-03-18T13:58:34.065Z,18.50
2023-03-18T14:03:05.894Z,18.34
2023-03-18T14:07:37.762Z,18.35
2023-03-18T14:12:17.622Z,18.63
2023-03-18T14:16:49.494Z,18.65
2023-03-18T14:21:19.151Z,18.71
2023-03-18T14:25:54.649Z,18.68
2023-03-18T14:30:23.440Z,18.56
2023-03-18T14:34:58.415Z,18.67
2023-03-18T14:39:39.069Z,18.55
2023-03-18T14:44:07.536Z,18.43
2023-03-18T14:58:34.837Z,18.03
2023-03-18T15:02:23.269Z,17.77
2023-03-18T15:06:16.182Z,17.72
2023-03-18T15:10:08.132Z,17.70
2023-03-18T15:14:03.467Z,17.73
2023-03-18T15:17:38.711Z,17.60
2023-03-18T15:21:42.249Z,17.57
2023-03-18T15:26:12.507Z,17.38
2023-03-18T15:30:24.314Z,17.25
2023-03-18T15:34:35.388Z,16.98
2023-03-18T15:39:10.291Z,16.84
2023-03-18T15:43:01.301Z,16.85
2023-03-18T15:47:10.506Z,16.87
2023-03-18T15:51:19.140Z,16.85
2023-03-18T15:54:59.913Z,16.85
2023-03-18T15:58:48.060Z,16.78
2023-03-18T16:02:36.028Z,16.73
2023-03-18T16:06:45.445Z,16.50
2023-03-18T16:10:30.123Z,16.34
2023-03-18T16:14:23.195Z,16.23
2023-03-18T16:18:20.598Z,16.14
2023-03-18T16:22:15.828Z,15.96
2023-03-18T16:25:55.233Z,15.93
2023-03-18T16:29:43.528Z,15.89
2023-03-18T16:33:33.689Z,15.70
2023-03-18T16:38:02.001Z,15.51
2023-03-18T16:41:37.347Z,15.28
2023-03-18T16:45:27.063Z,15.14
2023-03-18T16:49:35.622Z,14.98
2023-03-18T16:53:26.232Z,14.69
2023-03-18T16:57:23.625Z,14.52
2023-03-18T17:01:22.277Z,14.29
2023-03-18T17:05:30.404Z,14.10
2023-03-18T17:09:19.929Z,13.89
2023-03-18T17:13:31.374Z,13.74
2023-03-18T17:17:38.597Z,13.58
2023-03-18T17:21:43.570Z,13.44
2023-03-18T17:25:56.817Z,13.16
2023-03-18T17:29:45.987Z,12.98
2023-03-18T17:33:21.898Z,12.81
2023-03-18T17:37:17.151Z,12.70
2023-03-18T17:41:05.978Z,12.60
2023-03-18T17:45:18.762Z,12.30
2023-03-18T17:49:25.942Z,11.95
2023-03-18T17:54:01.888Z,11.87
2023-03-18T17:57:31.522Z,11.75
2023-03-18T18:01:19.415Z,11.69
2023-03-18T18:05:33.838Z,11.32
2023-03-18T18:09:07.519Z,11.22
2023-03-18T18:13:18.192Z,11.26
2023-03-18T18:17:27.163Z,11.16
2023-03-18T18:21:19.951Z,10.83
2023-03-18T18:25:25.531Z,10.60
2023-03-18T18:29:21.570Z,10.50
2023-03-18T18:33:49.088Z,10.22
2023-03-18T18:37:40.974Z,9.97
2023-03-18T18:41:09.351Z,9.80
2023-03-18T18:45:17.302Z,9.77
2023-03-18T18:49:14.106Z,9.70
2023-03-18T18:52:57.777Z,9.64
2023-03-18T18:56:34.819Z,9.52
2023-03-18T19:00:24.084Z,9.24
2023-03-18T19:04:00.128Z,9.09
2023-03-18T19:07:56.266Z,8.98
2023-03-18T19:10:46.816Z,8.90
2023-03-18T19:14:41.270Z,8.88
2023-03-18T19:18:27.816Z,8.79
2023-03-18T19:22:10.030Z,8.83
2023-03-18T19:25:46.942Z,8.75
2023-03-18T19:29:56.973Z,8.61
2023-03-18T19:33:05.985Z,8.38
2023-03-18T19:36:04.295Z,8.23
2023-03-18T19:40:17.067Z,8.24
2023-03-18T19:44:16.726Z,8.17
2023-03-18T19:47:52.264Z,8.09
2023-03-18T19:51:22.729Z,8.08
2023-03-18T19:55:20.927Z,7.82
2023-03-18T19:58:59.897Z,7.62
2023-03-18T20:03:08.689Z,7.49
2023-03-18T20:07:03.102Z,7.37
2023-03-18T20:10:44.577Z,7.36
2023-03-18T20:14:20.879Z,7.47
2023-03-18T20:18:22.218Z,7.52
2023-03-18T20:21:55.485Z,7.42
2023-03-18T20:25:06.831Z,7.24
2023-03-18T20:27:46.157Z,7.21
2023-03-18T20:31:13.369Z,7.22
2023-03-18T20:34:42.827Z,7.01
2023-03-18T20:38:31.517Z,6.76
2023-03-18T20:42:20.882Z,6.59
2023-03-18T20:45:21.585Z,6.59
2023-03-18T20:49:10.235Z,6.64
2023-03-18T20:53:04.232Z,6.66
2023-03-18T20:56:43.846Z,6.75
2023-03-18T21:00:33.137Z,6.80
2023-03-18T21:04:15.716Z,6.86
2023-03-18T21:08:17.723Z,6.83
2023-03-18T21:11:59.141Z,6.70
2023-03-18T21:14:57.194Z,6.72
2023-03-18T21:18:45.627Z,6.75
2023-03-18T21:22:31.722Z,6.58
2023-03-18T21:26:06.688Z,6.40
2023-03-18T21:29:57.282Z,6.36
2023-03-18T21:33:27.730Z,6.27
2023-03-18T21:36:43.353Z,6.20
2023-03-18T21:39:52.092Z,6.20
2023-03-18T21:42:59.978Z,6.12
2023-03-18T21:46:40.972Z,6.09
2023-03-18T21:50:12.663Z,5.91
2023-03-18T21:53:58.808Z,5.76
2023-03-18T21:57:48.736Z,5.84
2023-03-18T22:01:49.619Z,5.79
2023-03-18T22:17:19.525Z,5.64
2023-03-18T22:19:55.946Z,5.64
2023-03-18T22:22:39.297Z,5.65
2023-03-18T22:25:44.300Z,5.64
2023-03-18T22:28:52.758Z,5.61
2023-03-18T22:31:33.330Z,5.51
2023-03-18T22:34:00.706Z,5.45
2023-03-18T22:36:36.408Z,5.48
2023-03-18T22:39:26.634Z,5.51
2023-03-18T22:42:35.856Z,5.47
2023-03-18T22:45:51.608Z,5.41
2023-03-18T22:48:23.805Z,5.30
2023-03-18T22:51:32.806Z,5.22
2023-03-18T22:54:26.472Z,5.13
2023-03-18T22:57:07.339Z,5.06
2023-03-18T22:59:56.108Z,5.07
2023-03-18T23:02:26.652Z,5.10
2023-03-18T23:05:03.784Z,5.09
2023-03-18T23:07:36.151Z,5.10
2023-03-18T23:10:53.402Z,5.12
2023-03-18T23:13:30.558Z,5.16
2023-03-18T23:16:11.622Z,5.16
2023-03-18T23:18:43.403Z,5.06
2023-03-18T23:21:42.589Z,4.87
2023-03-18T23:24:09.485Z,4.75
2023-03-18T23:27:27.046Z,4.71
2023-03-18T23:30:58.560Z,4.68
2023-03-18T23:33:47.004Z,4.65
2023-03-18T23:36:28.070Z,4.67
2023-03-18T23:38:58.106Z,4.71
2023-03-18T23:41:25.036Z,4.69
2023-03-18T23:44:12.351Z,4.64
2023-03-18T23:47:02.952Z,4.55
2023-03-18T23:49:39.429Z,4.60
2023-03-18T23:52:57.240Z,4.60
2023-03-18T23:55:58.185Z,4.58
2023-03-18T23:58:45.197Z,4.62
